createdAt,value
2023-05-10T00:01:46.040Z,100498.88
2023-05-10T00:04:48.717Z,100489.94
2023-05-10T00:07:51.426Z,100487.53
2023-05-10T00:10:54.191Z,100484.97
2023-05-10T00:13:58.153Z,100477.16
2023-05-10T00:17:00.913Z,100480.03
2023-05-10T00:20:05.792Z,100472.88
2023-05-10T00:23:08.376Z,100469.13
2023-05-10T00:26:10.991Z,100469.00
2023-05-10T00:29:14.905Z,100471.06
2023-05-10T00:32:17.953Z,100461.84
2023-05-10T00:35:20.918Z,100455.44
2023-05-10T00:38:23.564Z,100453.72
2023-05-10T00:41:26.139Z,100449.94
2023-05-10T00:44:30.142Z,100457.06
2023-05-10T00:47:33.775Z,100450.97
2023-05-10T00:50:36.803Z,100447.25
2023-05-10T00:53:39.390Z,100441.72
2023-05-10T00:56:42.709Z,100442.09
2023-05-10T00:59:47.216Z,100441.91
2023-05-10T01:02:50.585Z,100431.78
2023-05-10T01:05:53.418Z,100433.22
2023-05-10T01:08:56.875Z,100432.00
2023-05-10T01:12:00.322Z,100432.34
2023-05-10T01:15:06.050Z,100428.16
2023-05-10T01:18:10.959Z,100434.25
2023-05-10T01:21:25.516Z,100421.00
2023-05-10T01:25:01.664Z,100428.94
2023-05-10T01:28:32.851Z,100436.34
2023-05-10T01:32:14.476Z,100439.22
2023-05-10T01:35:24.852Z,100443.69
2023-05-10T01:38:35.105Z,100443.91
2023-05-10T01:41:46.729Z,100447.56
2023-05-10T01:45:00.203Z,100434.03
2023-05-10T01:48:08.553Z,100435.59
2023-05-10T01:51:13.314Z,100436.53
2023-05-10T01:54:19.512Z,100437.38
2023-05-10T01:57:24.220Z,100434.63
2023-05-10T02:00:28.111Z,100434.63
2023-05-10T02:03:33.062Z,100437.09
2023-05-10T02:06:40.348Z,100432.09
2023-05-10T02:09:48.340Z,100425.53
2023-05-10T02:12:52.722Z,100427.53
2023-05-10T02:15:56.644Z,100429.63
2023-05-10T02:19:01.041Z,100431.59
2023-05-10T02:22:05.829Z,100430.28
2023-05-10T02:25:10.717Z,100418.97
2023-05-10T02:28:14.975Z,100415.94
2023-05-10T02:31:18.372Z,100422.16
2023-05-10T02:34:22.090Z,100428.09
2023-05-10T02:37:27.427Z,100419.91
2023-05-10T02:40:31.944Z,100421.13
2023-05-10T02:43:35.722Z,100417.66
2023-05-10T02:46:38.856Z,100415.13
2023-05-10T02:49:41.588Z,100408.53
2023-05-10T02:52:49.014Z,100415.25
2023-05-10T02:55:56.101Z,100401.34
2023-05-10T02:58:58.745Z,100407.25
2023-05-10T03:02:01.818Z,100406.16
2023-05-10T03:05:05.001Z,100404.59
2023-05-10T03:08:09.309Z,100402.19
2023-05-10T03:11:25.177Z,100395.66
2023-05-10T03:14:42.916Z,100395.66
2023-05-10T03:17:50.884Z,100400.81
2023-05-10T03:20:59.630Z,100399.28
2023-05-10T03:24:09.065Z,100400.41
2023-05-10T03:27:12.255Z,100398.69
2023-05-10T03:30:15.864Z,100403.25
2023-05-10T03:33:18.735Z,100399.66
2023-05-10T03:36:21.630Z,100404.00
2023-05-10T03:39:25.808Z,100401.34
2023-05-10T03:42:28.443Z,100396.16
2023-05-10T03:45:31.652Z,100403.38
2023-05-10T03:48:34.735Z,100407.88
2023-05-10T03:51:37.326Z,100406.88
2023-05-10T03:54:41.261Z,100401.53
2023-05-10T03:57:44.259Z,100393.16
2023-05-10T04:00:46.967Z,100399.00
2023-05-10T04:03:49.626Z,100404.47
2023-05-10T04:06:52.267Z,100394.06
2023-05-10T04:09:56.213Z,100395.78
2023-05-10T04:12:58.995Z,100395.28
2023-05-10T04:16:01.639Z,100399.63
2023-05-10T04:19:04.726Z,100396.25
2023-05-10T04:22:07.385Z,100398.09
2023-05-10T04:25:11.811Z,100392.75
2023-05-10T04:28:14.360Z,100399.03
2023-05-10T04:31:17.047Z,100397.38
2023-05-10T04:34:19.739Z,100397.47
2023-05-10T04:37:23.842Z,100399.03
2023-05-10T04:40:28.010Z,100397.97
2023-05-10T04:43:30.580Z,100396.38
2023-05-10T04:46:33.212Z,100393.22
2023-05-10T04:49:35.918Z,100398.63
2023-05-10T04:52:38.492Z,100397.38
2023-05-10T04:55:42.450Z,100397.06
2023-05-10T04:58:45.049Z,100398.25
2023-05-10T05:01:47.678Z,100401.47
2023-05-10T05:04:50.466Z,100399.47
2023-05-10T05:07:53.080Z,100394.00
2023-05-10T05:10:57.018Z,100390.66
2023-05-10T05:14:00.823Z,100401.06
2023-05-10T05:17:03.412Z,100398.38
2023-05-10T05:20:07.337Z,100404.78
2023-05-10T05:23:09.965Z,100402.59
2023-05-10T05:26:14.043Z,100405.94
2023-05-10T05:29:16.712Z,100401.66
2023-05-10T05:32:19.307Z,100404.22
2023-05-10T05:35:21.978Z,100405.75
2023-05-10T05:38:24.651Z,100410.25
2023-05-10T05:41:28.603Z,100406.63
2023-05-10T05:44:31.187Z,100418.53
2023-05-10T05:47:33.806Z,100409.75
2023-05-10T05:50:36.432Z,100403.44
2023-05-10T05:53:39.036Z,100407.69
2023-05-10T05:56:42.997Z,100404.81
2023-05-10T05:59:45.692Z,100406.22
2023-05-10T06:02:48.914Z,100413.22
2023-05-10T06:05:51.591Z,100414.63
2023-05-10T06:08:54.162Z,100407.25
2023-05-10T06:11:58.156Z,100402.63
2023-05-10T06:15:00.828Z,100416.56
2023-05-10T06:18:03.894Z,100414.25
2023-05-10T06:21:06.772Z,100420.78
2023-05-10T06:24:09.530Z,100421.56
2023-05-10T06:27:13.462Z,100429.53
2023-05-10T06:30:16.446Z,100424.25
2023-05-10T06:33:19.046Z,100427.63
2023-05-10T06:36:21.749Z,100427.41
2023-05-10T06:39:24.306Z,100426.34
2023-05-10T06:42:28.325Z,100437.25
2023-05-10T06:45:30.932Z,100441.34
2023-05-10T06:48:33.548Z,100434.38
2023-05-10T06:51:36.141Z,100434.25
2023-05-10T06:54:38.787Z,100429.97
2023-05-10T06:57:42.724Z,100446.38
2023-05-10T07:00:46.401Z,100441.75
2023-05-10T07:03:49.168Z,100444.88
2023-05-10T07:06:51.782Z,100434.47
2023-05-10T07:09:54.387Z,100436.81
2023-05-10T07:12:58.428Z,100439.81
2023-05-10T07:16:02.881Z,100439.59
2023-05-10T07:19:06.281Z,100428.09
2023-05-10T07:22:09.020Z,100440.22
2023-05-10T07:25:11.747Z,100444.72
2023-05-10T07:28:16.125Z,100439.72
2023-05-10T07:31:18.689Z,100442.19
2023-05-10T07:34:21.275Z,100446.44
2023-05-10T07:37:23.868Z,100453.53
2023-05-10T07:40:26.716Z,100450.94
2023-05-10T07:43:30.654Z,100443.69
2023-05-10T07:46:33.296Z,100444.16
2023-05-10T07:49:36.553Z,100450.56
2023-05-10T07:52:39.220Z,100450.78
2023-05-10T07:55:41.856Z,100446.72
2023-05-10T07:58:45.787Z,100442.06
2023-05-10T08:01:48.383Z,100457.78
2023-05-10T08:04:50.965Z,100454.28
2023-05-10T08:07:53.577Z,100460.31
2023-05-10T08:10:56.160Z,100462.22
2023-05-10T08:14:00.573Z,100464.38
2023-05-10T08:17:03.166Z,100462.72
2023-05-10T08:20:06.701Z,100468.88
2023-05-10T08:23:09.599Z,100473.56
2023-05-10T08:26:12.417Z,100475.53
2023-05-10T08:29:16.427Z,100471.88
2023-05-10T08:32:19.303Z,100471.88
2023-05-10T08:35:21.879Z,100471.63
2023-05-10T08:38:24.890Z,100474.81
2023-05-10T08:41:27.805Z,100479.91
2023-05-10T08:44:33.761Z,100474.94
2023-05-10T08:47:38.852Z,100490.94
2023-05-10T08:50:42.953Z,100483.13
2023-05-10T08:53:46.565Z,100482.47
2023-05-10T08:56:49.921Z,100491.47
2023-05-10T08:59:54.251Z,100493.16
2023-05-10T09:02:57.031Z,100500.19
2023-05-10T09:05:59.853Z,100505.72
2023-05-10T09:09:04.399Z,100507.31
2023-05-10T09:12:08.386Z,100512.59
2023-05-10T09:15:15.769Z,100517.41
2023-05-10T09:18:18.806Z,100516.16
2023-05-10T09:21:22.007Z,100512.41
2023-05-10T09:24:27.548Z,100522.47
2023-05-10T09:27:30.396Z,100518.03
2023-05-10T09:30:34.465Z,100522.72
2023-05-10T09:33:46.028Z,100522.72
2023-05-10T09:36:57.283Z,100523.25
2023-05-10T09:40:00.059Z,100536.22
2023-05-10T09:43:04.527Z,100542.66
2023-05-10T09:46:12.181Z,100541.91
2023-05-10T09:49:16.926Z,100544.72
2023-05-10T09:52:19.626Z,100549.50
2023-05-10T09:55:24.178Z,100554.88
2023-05-10T09:58:27.163Z,100551.91
2023-05-10T10:01:31.430Z,100558.41
2023-05-10T10:04:34.201Z,100570.00
2023-05-10T10:07:37.321Z,100567.66
2023-05-10T10:10:41.189Z,100563.88
2023-05-10T10:13:44.039Z,100568.19
2023-05-10T10:17:04.955Z,100578.13
2023-05-10T10:20:12.079Z,100578.69
2023-05-10T10:23:17.346Z,100585.50
2023-05-10T10:26:21.927Z,100589.97
2023-05-10T10:29:28.419Z,100580.31
2023-05-10T10:32:46.575Z,100590.81
2023-05-10T10:35:49.616Z,100599.47
2023-05-10T10:39:02.373Z,100601.63
2023-05-10T10:42:06.957Z,100605.00
2023-05-10T10:45:16.137Z,100602.88
2023-05-10T10:48:24.750Z,100609.38
2023-05-10T10:51:32.118Z,100620.56
2023-05-10T10:54:34.717Z,100619.84
2023-05-10T10:57:49.389Z,100634.19
2023-05-10T11:00:52.274Z,100634.84
2023-05-10T11:04:20.605Z,100630.81
2023-05-10T11:07:24.025Z,100627.34
2023-05-10T11:10:27.675Z,100633.19
2023-05-10T11:13:32.030Z,100635.53
2023-05-10T11:16:44.778Z,100641.59
2023-05-10T11:20:10.587Z,100648.44
2023-05-10T11:23:16.684Z,100651.72
2023-05-10T11:26:19.933Z,100648.53
2023-05-10T11:29:22.599Z,100645.81
2023-05-10T11:32:25.401Z,100651.44
2023-05-10T11:35:29.796Z,100651.03
2023-05-10T11:38:34.930Z,100653.09
2023-05-10T11:41:37.511Z,100656.03
2023-05-10T11:44:40.124Z,100657.44
2023-05-10T11:47:44.243Z,100656.09
2023-05-10T11:50:48.380Z,100659.97
2023-05-10T11:53:52.510Z,100662.03
2023-05-10T11:56:55.075Z,100667.25
2023-05-10T11:59:59.651Z,100670.81
2023-05-10T12:03:03.170Z,100669.78
2023-05-10T12:06:09.140Z,100672.34
2023-05-10T12:09:11.824Z,100677.28
2023-05-10T12:12:18.366Z,100680.50
2023-05-10T12:15:23.604Z,100678.38
2023-05-10T12:18:26.692Z,100675.16
2023-05-10T12:21:32.475Z,100684.72
2023-05-10T12:24:36.864Z,100692.34
2023-05-10T12:27:39.466Z,100691.06
2023-05-10T12:30:42.194Z,100704.31
2023-05-10T12:33:46.268Z,100700.16
2023-05-10T12:36:54.174Z,100695.31
2023-05-10T12:39:56.755Z,100697.25
2023-05-10T12:42:59.395Z,100704.00
2023-05-10T12:46:06.948Z,100707.38
2023-05-10T12:49:09.987Z,100714.84
2023-05-10T12:52:14.099Z,100716.25
2023-05-10T12:55:16.996Z,100722.97
2023-05-10T12:58:31.917Z,100723.75
2023-05-10T13:01:38.132Z,100720.84
2023-05-10T13:04:41.268Z,100727.34
2023-05-10T13:07:46.102Z,100724.91
2023-05-10T13:10:48.721Z,100727.38
2023-05-10T13:13:51.316Z,100727.81
2023-05-10T13:16:53.941Z,100725.34
2023-05-10T13:19:56.696Z,100728.25
2023-05-10T13:23:00.793Z,100733.28
2023-05-10T13:26:03.353Z,100727.50
2023-05-10T13:29:06.013Z,100720.28
2023-05-10T13:32:08.743Z,100726.41
2023-05-10T13:35:11.432Z,100723.59
2023-05-10T13:38:15.608Z,100727.91
2023-05-10T13:41:18.575Z,100724.56
2023-05-10T13:44:22.393Z,100734.13
2023-05-10T13:47:25.222Z,100728.31
2023-05-10T13:50:27.920Z,100723.28
2023-05-10T13:53:31.931Z,100726.09
2023-05-10T13:56:34.566Z,100723.41
2023-05-10T13:59:37.177Z,100725.53
2023-05-10T14:02:40.002Z,100726.81
2023-05-10T14:05:42.656Z,100724.13
2023-05-10T14:08:46.623Z,100724.63
2023-05-10T14:11:49.213Z,100726.81
2023-05-10T14:14:51.808Z,100720.16
2023-05-10T14:17:54.488Z,100722.91
2023-05-10T14:20:57.142Z,100712.78
2023-05-10T14:24:01.061Z,100722.22
2023-05-10T14:27:03.721Z,100715.91
2023-05-10T14:30:07.596Z,100721.09
2023-05-10T14:33:10.234Z,100717.16
2023-05-10T14:36:12.914Z,100724.84
2023-05-10T14:39:17.353Z,100730.47
2023-05-10T14:42:19.941Z,100727.59
2023-05-10T14:45:23.417Z,100721.94
2023-05-10T14:48:26.094Z,100717.31
2023-05-10T14:51:28.673Z,100717.50
2023-05-10T14:54:34.327Z,100723.75
2023-05-10T14:57:37.131Z,100736.38
2023-05-10T15:00:39.722Z,100727.06
2023-05-10T15:03:42.904Z,100735.91
2023-05-10T15:06:45.957Z,100735.38
2023-05-10T15:09:50.444Z,100729.88
2023-05-10T15:12:53.004Z,100728.16
2023-05-10T15:15:55.716Z,100731.41
2023-05-10T15:18:58.430Z,100736.03
2023-05-10T15:22:01.186Z,100729.78
2023-05-10T15:25:05.661Z,100734.09
2023-05-10T15:28:08.292Z,100729.53
2023-05-10T15:31:11.457Z,100738.84
2023-05-10T15:34:14.136Z,100736.69
2023-05-10T15:37:16.729Z,100745.22
2023-05-10T15:40:20.904Z,100743.31
2023-05-10T15:43:23.512Z,100750.31
2023-05-10T15:46:26.092Z,100752.47
2023-05-10T15:49:28.703Z,100752.47
2023-05-10T15:52:31.333Z,100752.88
2023-05-10T15:55:35.281Z,100761.19
2023-05-10T15:58:39.032Z,100751.63
2023-05-10T16:01:41.684Z,100757.41
2023-05-10T16:04:45.014Z,100759.03
2023-05-10T16:07:47.612Z,100758.78
2023-05-10T16:10:52.237Z,100756.34
2023-05-10T16:13:55.409Z,100770.34
2023-05-10T16:16:58.069Z,100763.91
2023-05-10T16:20:01.128Z,100770.38
2023-05-10T16:23:05.486Z,100784.56
2023-05-10T16:26:09.451Z,100777.13
2023-05-10T16:29:12.061Z,100776.47
2023-05-10T16:32:14.700Z,100777.47
2023-05-10T16:35:17.854Z,100771.66
2023-05-10T16:38:21.466Z,100775.72
2023-05-10T16:41:26.390Z,100783.47
2023-05-10T16:44:29.022Z,100780.25
2023-05-10T16:47:31.611Z,100788.44
2023-05-10T16:50:34.266Z,100787.56
2023-05-10T16:53:37.720Z,100786.00
2023-05-10T16:56:41.681Z,100793.81
2023-05-10T16:59:44.235Z,100791.22
2023-05-10T17:02:46.898Z,100795.06
2023-05-10T17:05:49.588Z,100792.28
2023-05-10T17:08:52.171Z,100799.19
2023-05-10T17:11:56.084Z,100804.41
2023-05-10T17:14:58.767Z,100796.34
2023-05-10T17:18:01.389Z,100807.63
2023-05-10T17:21:04.116Z,100806.31
2023-05-10T17:24:06.935Z,100806.63
2023-05-10T17:27:11.212Z,100818.00
2023-05-10T17:30:14.431Z,100813.69
2023-05-10T17:33:17.027Z,100825.72
2023-05-10T17:36:19.683Z,100825.91
2023-05-10T17:39:22.494Z,100830.03
2023-05-10T17:42:26.437Z,100833.75
2023-05-10T17:45:29.058Z,100848.00
2023-05-10T17:48:31.691Z,100840.50
2023-05-10T17:51:34.319Z,100844.81
2023-05-10T17:54:36.885Z,100854.88
2023-05-10T17:57:40.825Z,100854.88
2023-05-10T18:00:43.434Z,100860.66
2023-05-10T18:03:46.260Z,100859.28
2023-05-10T18:06:49.264Z,100861.56
2023-05-10T18:09:51.888Z,100862.06
2023-05-10T18:12:55.806Z,100867.00
2023-05-10T18:15:58.434Z,100871.63
2023-05-10T18:19:01.098Z,100877.16
2023-05-10T18:22:03.912Z,100879.19
2023-05-10T18:25:07.402Z,100881.44
2023-05-10T18:28:11.390Z,100887.44
2023-05-10T18:31:13.999Z,100892.38
2023-05-10T18:34:16.621Z,100898.16
2023-05-10T18:37:19.405Z,100896.66
2023-05-10T18:40:22.103Z,100898.38
2023-05-10T18:43:26.304Z,100908.69
2023-05-10T18:46:28.907Z,100907.84
2023-05-10T18:49:32.027Z,100909.44
2023-05-10T18:52:35.924Z,100905.06
2023-05-10T18:55:38.568Z,100917.41
2023-05-10T18:58:42.516Z,100915.50
2023-05-10T19:01:45.339Z,100930.88
2023-05-10T19:04:48.033Z,100932.31
2023-05-10T19:07:50.698Z,100929.56
2023-05-10T19:10:53.265Z,100934.69
2023-05-10T19:13:57.234Z,100938.66
2023-05-10T19:17:00.336Z,100941.31
2023-05-10T19:20:04.109Z,100952.03
2023-05-10T19:23:10.210Z,100953.81
2023-05-10T19:26:13.359Z,100955.94
2023-05-10T19:29:17.444Z,100956.13
2023-05-10T19:32:20.157Z,100960.72
2023-05-10T19:35:22.883Z,100962.81
2023-05-10T19:38:26.550Z,100972.53
2023-05-10T19:41:29.301Z,100966.81
2023-05-10T19:44:33.362Z,100974.56
2023-05-10T19:47:36.285Z,100976.06
2023-05-10T19:50:39.196Z,100980.78
2023-05-10T19:53:44.618Z,100975.31
2023-05-10T19:56:47.243Z,100983.41
2023-05-10T19:59:51.243Z,100973.84
2023-05-10T20:02:54.320Z,100985.13
2023-05-10T20:05:56.969Z,100982.53
2023-05-10T20:08:59.631Z,100983.59
2023-05-10T20:12:02.393Z,100989.97
2023-05-10T20:15:07.942Z,100991.03
2023-05-10T20:18:10.660Z,100992.50
2023-05-10T20:21:13.477Z,100990.69
2023-05-10T20:24:16.085Z,100995.88
2023-05-10T20:27:21.005Z,100993.81
2023-05-10T20:30:24.972Z,100990.38
2023-05-10T20:33:27.603Z,100990.88
2023-05-10T20:36:31.115Z,100992.97
2023-05-10T20:39:33.693Z,100999.16
2023-05-10T20:42:36.283Z,100997.34
2023-05-10T20:45:40.328Z,101002.09
2023-05-10T20:48:42.906Z,101002.44
2023-05-10T20:51:45.548Z,101000.38
2023-05-10T20:54:48.143Z,101000.94
2023-05-10T20:57:51.396Z,101002.13
2023-05-10T21:00:55.445Z,101004.81
2023-05-10T21:03:58.051Z,101013.19
2023-05-10T21:07:00.748Z,101009.72
2023-05-10T21:10:03.515Z,101009.03
2023-05-10T21:13:06.095Z,101009.91
2023-05-10T21:16:10.051Z,101010.16
2023-05-10T21:19:12.695Z,101003.59
2023-05-10T21:22:15.309Z,101004.78
2023-05-10T21:25:18.306Z,101006.25
2023-05-10T21:28:20.898Z,101001.72
2023-05-10T21:31:24.908Z,101006.09
2023-05-10T21:34:27.821Z,100995.75
2023-05-10T21:37:30.379Z,100996.25
2023-05-10T21:40:32.986Z,100996.00
2023-05-10T21:43:35.566Z,100995.50
2023-05-10T21:46:39.507Z,100999.44
2023-05-10T21:49:42.134Z,100998.50
2023-05-10T21:52:44.739Z,101000.41
2023-05-10T21:55:47.379Z,101012.19
2023-05-10T21:58:49.958Z,101006.75
2023-05-10T22:01:53.919Z,101005.38
2023-05-10T22:04:56.733Z,101010.72
2023-05-10T22:07:59.414Z,101015.88
2023-05-10T22:11:02.041Z,101007.84
2023-05-10T22:14:04.763Z,101012.00
2023-05-10T22:17:08.785Z,101018.63
2023-05-10T22:20:11.726Z,101015.06
2023-05-10T22:23:14.462Z,101018.09
2023-05-10T22:26:17.167Z,101015.34
2023-05-10T22:29:19.753Z,101023.34
2023-05-10T22:32:23.718Z,101021.81
2023-05-10T22:35:26.420Z,101017.72
2023-05-10T22:38:29.020Z,101027.16
2023-05-10T22:41:31.613Z,101024.22
2023-05-10T22:44:34.243Z,101025.09
2023-05-10T22:47:38.232Z,101023.69
2023-05-10T22:50:40.883Z,101028.88
2023-05-10T22:53:43.594Z,101035.50
2023-05-10T22:56:46.230Z,101045.69
2023-05-10T22:59:49.158Z,101041.75
2023-05-10T23:02:53.194Z,101050.25
2023-05-10T23:05:55.779Z,101048.03
2023-05-10T23:08:58.392Z,101055.41
2023-05-10T23:12:00.976Z,101052.75
2023-05-10T23:15:03.633Z,101056.38
2023-05-10T23:18:09.561Z,101063.41
2023-05-10T23:21:12.227Z,101060.69
2023-05-10T23:24:14.809Z,101057.00
2023-05-10T23:27:17.376Z,101057.22
2023-05-10T23:30:20.171Z,101056.28
2023-05-10T23:33:24.800Z,101064.84
2023-05-10T23:36:27.390Z,101064.03
2023-05-10T23:39:30.024Z,101064.38
2023-05-10T23:42:33.684Z,101064.06
2023-05-10T23:45:36.295Z,101057.72
2023-05-10T23:48:40.256Z,101061.56
2023-05-10T23:51:42.829Z,101061.38
2023-05-10T23:54:46.070Z,101059.50
2023-05-10T23:57:48.687Z,101060.53
